Holly Ridge, Louisiana
Current Conditions -  °F | °C
As of 8:53 AM on Wednesday 26 Nov 2014 (Local Time) from KMLU Reporting Station
Haze Haze  
Wind Chill: 43°   Ceiling: Unl
Heat Index: 47°   Visibility: 4mi
Dew Point: 39°   Wind: 8mph
Humidity: 74%   Direction: 220°SW
Pressure: 30.18"   Gusts: NA
Location:  32.4475°N, 91.7992°W
Report Text: KMLU 261453Z 22007KT 4SM HZ CLR 08/04 A3018 RMK AO2 SLP218 T00830039 53005
Loading
Personal Weather Stations






























Interactive Weather Map New forecast layout! Learn more

10-Day Weather Forecast

Advertisements
Track Severe Weather on mobile